Time;durP1;ratioP1;P1;durP2;ratioP2;P2;SDS_P1;SDS_P2;PMS_P1;PMS_P2;Temp;Humidity;BMP_temperature;BMP_pressure;BME280_temperature;BME280_humidity;BME280_pressure;Samples;Min_cycle;Max_cycle;Signal;HPM_P1;HPM_P2
2023/05/04 00:00:42;;;;;;;19.63;9.93;;;4.50;84.50;;;;;;5000364;28;20200;-86
2023/05/04 00:03:07;;;;;;;16.80;10.17;;;4.50;84.40;;;;;;4999760;28;20182;-86
2023/05/04 00:05:33;;;;;;;15.33;10.60;;;4.40;84.10;;;;;;4999833;28;20562;-87
2023/05/04 00:07:58;;;;;;;13.53;10.10;;;4.30;84.10;;;;;;4999688;28;20253;-87
2023/05/04 00:10:25;;;;;;;13.87;10.13;;;4.10;84.10;;;;;;5017110;28;20551;-86
2023/05/04 00:12:51;;;;;;;14.33;10.50;;;4.00;84.20;;;;;;4999181;28;20178;-86
2023/05/04 00:15:16;;;;;;;23.20;19.83;;;3.90;84.30;;;;;;5000247;28;20498;-86
2023/05/04 00:17:42;;;;;;;22.27;20.13;;;3.80;84.70;;;;;;4999188;28;20583;-86
2023/05/04 00:20:08;;;;;;;21.80;19.73;;;3.80;85.00;;;;;;4998984;28;20203;-87
2023/05/04 00:22:33;;;;;;;19.83;18.00;;;3.80;85.20;;;;;;4999645;28;20188;-87
2023/05/04 00:24:59;;;;;;;15.63;10.83;;;3.80;85.30;;;;;;4999783;28;20174;-86
2023/05/04 00:27:24;;;;;;;15.93;11.83;;;3.80;85.50;;;;;;4999640;28;20626;-86
2023/05/04 00:29:50;;;;;;;18.20;10.33;;;3.70;85.60;;;;;;4999928;28;20285;-86
2023/05/04 00:32:15;;;;;;;23.10;18.97;;;3.70;85.70;;;;;;4999066;28;20173;-86
2023/05/04 00:34:41;;;;;;;21.57;17.30;;;3.70;85.70;;;;;;4998941;28;20201;-86
2023/05/04 00:37:06;;;;;;;19.87;18.07;;;3.60;85.80;;;;;;4998845;28;20626;-86
2023/05/04 00:39:34;;;;;;;21.87;18.47;;;3.60;85.90;;;;;;5016393;28;20280;-86
2023/05/04 00:41:59;;;;;;;17.27;10.83;;;3.50;86.00;;;;;;5015285;28;20176;-86
2023/05/04 00:44:25;;;;;;;16.77;10.07;;;3.50;86.10;;;;;;5016830;28;20173;-86
2023/05/04 00:46:51;;;;;;;14.83;10.37;;;3.50;86.20;;;;;;4998805;28;20256;-86
2023/05/04 00:49:18;;;;;;;14.90;9.97;;;3.40;86.40;;;;;;4999083;28;20588;-86
2023/05/04 00:51:44;;;;;;;19.40;10.67;;;3.40;86.50;;;;;;4999134;28;20264;-86
2023/05/04 00:54:10;;;;;;;18.33;10.13;;;3.40;86.60;;;;;;4998761;28;20194;-86
2023/05/04 00:56:41;;;;;;;14.53;10.23;;;3.40;86.60;;;;;;4999052;28;20628;-86
2023/05/04 00:59:06;;;;;;;12.17;10.23;;;3.40;86.70;;;;;;4998588;28;20283;-86
2023/05/04 01:01:32;;;;;;;17.87;10.33;;;3.30;86.80;;;;;;4998597;28;20668;-86
2023/05/04 01:03:58;;;;;;;16.27;10.13;;;3.30;86.90;;;;;;4998538;28;20536;-86
2023/05/04 01:06:44;;;;;;;21.20;13.00;;;3.40;87.10;;;;;;5015925;28;20251;-86
2023/05/04 01:09:16;;;;;;;17.73;10.50;;;3.40;87.20;;;;;;4998332;28;20197;-86
2023/05/04 01:11:53;;;;;;;16.30;9.57;;;3.40;87.30;;;;;;4998634;28;20177;-86
2023/05/04 01:14:20;;;;;;;12.53;9.80;;;3.40;87.30;;;;;;4998490;28;20268;-86
2023/05/04 01:16:46;;;;;;;14.33;10.67;;;3.40;87.30;;;;;;4998678;28;20178;-86
2023/05/04 01:19:12;;;;;;;14.50;10.43;;;3.40;87.40;;;;;;4998460;28;20201;-86
2023/05/04 01:21:38;;;;;;;16.87;10.43;;;3.30;87.40;;;;;;5016112;28;20177;-86
2023/05/04 01:24:05;;;;;;;17.13;10.07;;;3.40;87.50;;;;;;4998431;28;20169;-86
2023/05/04 01:26:36;;;;;;;17.03;9.73;;;3.30;87.50;;;;;;4998245;28;20197;-86
2023/05/04 01:29:47;;;;;;;22.73;10.10;;;3.30;87.50;;;;;;5015909;28;20288;-86
2023/05/04 01:32:15;;;;;;;19.53;10.97;;;3.20;87.60;;;;;;4990181;28;20178;-87
2023/05/04 01:34:41;;;;;;;20.60;10.90;;;3.20;87.80;;;;;;4998422;28;20201;-87
2023/05/04 01:37:07;;;;;;;15.27;10.53;;;3.30;87.80;;;;;;4998018;28;20188;-87
2023/05/04 01:39:32;;;;;;;18.43;10.70;;;3.30;87.80;;;;;;4998105;28;20715;-87
2023/05/04 01:41:58;;;;;;;13.50;10.90;;;3.30;87.80;;;;;;5016088;28;20173;-86
2023/05/04 01:44:24;;;;;;;18.57;11.00;;;3.40;87.70;;;;;;4998140;28;20192;-86
2023/05/04 01:46:49;;;;;;;13.33;9.53;;;3.50;87.70;;;;;;4998066;28;20205;-86
2023/05/04 01:49:15;;;;;;;16.93;10.33;;;3.50;87.70;;;;;;4997910;28;20691;-87
2023/05/04 01:51:40;;;;;;;13.43;9.90;;;3.60;87.60;;;;;;5016188;28;20170;-86
2023/05/04 01:54:06;;;;;;;24.23;17.70;;;3.50;87.50;;;;;;4997840;28;20174;-87
2023/05/04 01:56:31;;;;;;;24.23;18.40;;;3.50;87.20;;;;;;4998013;28;20181;-86
2023/05/04 01:58:57;;;;;;;20.63;17.73;;;3.30;87.20;;;;;;4998241;28;20257;-88
2023/05/04 02:01:22;;;;;;;26.30;18.97;;;3.30;87.40;;;;;;5016844;28;20236;-87
2023/05/04 02:03:48;;;;;;;22.23;18.50;;;3.30;87.40;;;;;;5015634;28;20204;-87
2023/05/04 02:06:13;;;;;;;17.83;10.90;;;3.30;87.40;;;;;;5015349;28;20253;-86
2023/05/04 02:08:40;;;;;;;16.80;10.17;;;3.40;87.50;;;;;;5015114;28;20205;-86
2023/05/04 02:11:05;;;;;;;22.00;19.83;;;3.40;87.50;;;;;;4997678;28;20671;-86
2023/05/04 02:13:31;;;;;;;22.40;18.83;;;3.40;87.60;;;;;;4998068;28;20269;-86
2023/05/04 02:15:56;;;;;;;18.83;16.97;;;3.50;87.70;;;;;;4997751;28;20177;-86
2023/05/04 02:18:22;;;;;;;23.23;19.77;;;3.40;87.60;;;;;;5015287;28;20178;-87
2023/05/04 02:20:47;;;;;;;16.13;10.73;;;3.40;87.60;;;;;;5015947;28;20701;-87
2023/05/04 02:23:13;;;;;;;22.77;10.40;;;3.30;87.70;;;;;;5015228;28;20177;-86
2023/05/04 02:25:40;;;;;;;15.53;11.33;;;3.30;87.80;;;;;;5015160;28;20188;-86
2023/05/04 02:28:06;;;;;;;18.80;10.97;;;3.20;87.90;;;;;;4997529;28;20201;-87
2023/05/04 02:30:31;;;;;;;13.37;10.30;;;3.20;88.00;;;;;;4997281;28;20240;-86
2023/05/04 02:32:57;;;;;;;21.77;11.57;;;3.10;88.10;;;;;;5015273;28;20177;-86
2023/05/04 02:35:22;;;;;;;15.87;10.23;;;3.10;88.20;;;;;;4997873;28;20184;-86
2023/05/04 02:37:48;;;;;;;13.40;10.77;;;3.10;88.20;;;;;;5015380;28;20187;-86
2023/05/04 02:40:14;;;;;;;16.17;10.13;;;3.00;88.20;;;;;;4997843;28;20555;-86
2023/05/04 02:42:40;;;;;;;16.33;10.00;;;3.00;88.20;;;;;;5015162;28;20605;-87
2023/05/04 02:45:06;;;;;;;19.33;11.10;;;2.90;88.30;;;;;;4997333;28;20181;-87
2023/05/04 02:47:32;;;;;;;15.80;11.00;;;2.90;88.30;;;;;;4996966;28;20205;-86
2023/05/04 02:49:57;;;;;;;14.07;9.57;;;2.80;88.30;;;;;;4997050;28;20216;-86
2023/05/04 02:52:23;;;;;;;13.80;11.33;;;2.80;88.40;;;;;;4997069;28;20181;-87
2023/05/04 02:54:48;;;;;;;15.53;9.53;;;2.80;88.40;;;;;;4997160;28;20314;-86
2023/05/04 02:57:14;;;;;;;15.30;9.63;;;2.70;88.50;;;;;;4996978;28;20650;-86
2023/05/04 02:59:39;;;;;;;22.57;10.67;;;2.70;88.60;;;;;;4996695;28;20197;-86
2023/05/04 03:02:05;;;;;;;21.93;11.03;;;2.80;88.60;;;;;;5015122;28;20165;-88
2023/05/04 03:04:31;;;;;;;13.43;10.20;;;2.70;88.50;;;;;;4996427;28;20238;-86
2023/05/04 03:06:56;;;;;;;15.47;11.20;;;2.60;88.50;;;;;;4997122;28;20207;-87
2023/05/04 03:09:22;;;;;;;18.50;10.23;;;2.60;88.50;;;;;;4996643;28;20274;-85
2023/05/04 03:11:47;;;;;;;11.97;10.13;;;2.60;88.50;;;;;;4998713;28;20223;-87
2023/05/04 03:14:13;;;;;;;14.23;10.13;;;2.60;88.60;;;;;;4996873;28;20592;-87
2023/05/04 03:16:38;;;;;;;12.23;10.87;;;2.40;88.50;;;;;;4997053;28;20551;-87
2023/05/04 03:19:04;;;;;;;21.07;11.20;;;2.40;88.60;;;;;;4996529;28;20317;-87
2023/05/04 03:21:29;;;;;;;14.53;10.40;;;2.40;88.70;;;;;;4996591;28;20276;-86
2023/05/04 03:23:55;;;;;;;21.87;11.77;;;2.40;88.70;;;;;;4996856;28;20180;-86
2023/05/04 03:26:20;;;;;;;12.93;10.33;;;2.50;88.80;;;;;;4996667;28;20559;-86
2023/05/04 03:28:46;;;;;;;17.83;16.03;;;2.40;88.90;;;;;;4996766;28;20206;-86
2023/05/04 03:31:11;;;;;;;19.57;17.53;;;2.40;89.00;;;;;;4996768;28;20175;-86
2023/05/04 03:33:37;;;;;;;36.30;18.53;;;2.40;89.00;;;;;;4996580;28;20170;-86
2023/05/04 03:36:03;;;;;;;21.77;16.77;;;2.40;89.10;;;;;;5014429;28;20211;-87
2023/05/04 03:38:28;;;;;;;25.00;18.63;;;2.50;89.20;;;;;;5014291;28;20268;-86
2023/05/04 03:40:55;;;;;;;16.97;11.17;;;2.40;89.20;;;;;;5013891;28;20197;-86
2023/05/04 03:43:20;;;;;;;16.73;10.80;;;2.40;89.40;;;;;;4996044;28;20178;-86
2023/05/04 03:45:46;;;;;;;21.73;17.43;;;2.40;89.40;;;;;;5013714;28;20594;-86
2023/05/04 03:48:11;;;;;;;18.17;15.93;;;2.40;89.40;;;;;;4995997;28;20622;-86
2023/05/04 03:50:37;;;;;;;22.63;17.30;;;2.30;89.40;;;;;;5014496;28;20254;-87
2023/05/04 03:53:04;;;;;;;21.80;16.77;;;2.30;89.50;;;;;;5013645;28;20177;-87
2023/05/04 03:55:30;;;;;;;17.63;14.43;;;2.30;89.50;;;;;;5013569;28;20260;-87
2023/05/04 03:57:55;;;;;;;14.33;10.30;;;2.30;89.60;;;;;;4995792;28;20258;-85
2023/05/04 04:00:21;;;;;;;19.10;11.70;;;2.30;89.50;;;;;;4995859;28;20197;-86
2023/05/04 04:02:46;;;;;;;20.77;16.60;;;2.30;89.50;;;;;;5013954;28;20238;-87
2023/05/04 04:05:12;;;;;;;19.53;15.60;;;2.30;89.60;;;;;;4996012;28;20179;-87
2023/05/04 04:07:37;;;;;;;23.80;15.40;;;2.30;89.60;;;;;;5013519;28;20200;-86
2023/05/04 04:10:03;;;;;;;24.20;15.60;;;2.30;89.60;;;;;;4996070;28;20199;-87
2023/05/04 04:12:28;;;;;;;19.23;11.90;;;2.40;89.70;;;;;;4996138;28;20176;-86
2023/05/04 04:14:54;;;;;;;19.77;11.47;;;2.50;89.70;;;;;;4996178;28;20201;-86
2023/05/04 04:17:19;;;;;;;19.60;10.93;;;2.50;89.80;;;;;;4999253;28;20184;-87
2023/05/04 04:19:45;;;;;;;18.17;10.97;;;2.50;89.80;;;;;;4999505;28;20237;-86
2023/05/04 04:22:11;;;;;;;18.67;11.47;;;2.60;89.80;;;;;;4999262;28;20704;-87
2023/05/04 04:24:36;;;;;;;16.43;11.60;;;2.60;89.80;;;;;;4999269;28;20186;-86
2023/05/04 04:27:02;;;;;;;18.77;11.77;;;2.70;89.80;;;;;;4999454;28;20215;-86
2023/05/04 04:29:27;;;;;;;15.77;12.10;;;2.90;89.90;;;;;;4999167;28;20560;-86
2023/05/04 04:31:53;;;;;;;21.13;11.80;;;3.00;89.90;;;;;;4999438;28;20260;-86
2023/05/04 04:34:18;;;;;;;20.23;12.80;;;3.10;89.90;;;;;;5016767;28;20177;-86
2023/05/04 04:36:44;;;;;;;20.13;12.50;;;3.20;90.00;;;;;;5016651;28;20636;-86
2023/05/04 04:39:10;;;;;;;22.33;11.93;;;3.30;90.00;;;;;;5016587;28;20185;-87
2023/05/04 04:41:35;;;;;;;20.53;12.20;;;3.40;89.90;;;;;;5016972;28;20598;-86
2023/05/04 04:44:01;;;;;;;22.53;12.50;;;3.40;90.00;;;;;;4999209;28;20173;-87
2023/05/04 04:46:27;;;;;;;21.53;11.97;;;3.40;90.00;;;;;;4999276;28;20669;-86
2023/05/04 04:48:54;;;;;;;19.00;11.93;;;3.40;90.00;;;;;;4998455;28;20213;-86
2023/05/04 04:51:20;;;;;;;19.50;12.70;;;3.50;90.10;;;;;;4999375;28;20204;-86
2023/05/04 04:53:45;;;;;;;20.30;11.67;;;3.60;90.30;;;;;;4999064;28;20176;-87
2023/05/04 04:56:11;;;;;;;20.17;13.20;;;3.70;90.40;;;;;;5016772;28;20177;-87
2023/05/04 04:58:37;;;;;;;27.10;12.87;;;3.80;90.60;;;;;;4999015;28;20180;-87
2023/05/04 05:01:03;;;;;;;24.30;13.27;;;4.00;90.80;;;;;;4998980;28;20272;-87
2023/05/04 05:03:30;;;;;;;20.63;12.33;;;4.20;90.90;;;;;;4998781;28;20178;-87
2023/05/04 05:05:55;;;;;;;23.57;13.40;;;4.30;90.90;;;;;;5016560;28;20177;-87
2023/05/04 05:08:21;;;;;;;25.87;13.40;;;4.30;90.80;;;;;;4998652;28;20197;-86
2023/05/04 05:10:47;;;;;;;22.60;13.40;;;4.30;90.80;;;;;;5016188;28;20190;-86
2023/05/04 05:13:12;;;;;;;26.60;16.83;;;4.30;90.80;;;;;;5016380;28;20170;-86
2023/05/04 05:15:38;;;;;;;29.97;16.43;;;4.40;90.80;;;;;;5016430;28;20240;-87
2023/05/04 05:18:03;;;;;;;25.60;15.80;;;4.50;90.70;;;;;;4998805;28;20184;-87
2023/05/04 05:20:29;;;;;;;25.27;16.47;;;4.60;90.70;;;;;;4998335;28;20195;-87
2023/05/04 05:22:54;;;;;;;26.77;16.20;;;4.70;90.80;;;;;;5016059;28;20175;-87
2023/05/04 05:25:20;;;;;;;26.63;16.33;;;4.70;90.70;;;;;;4998536;28;20312;-87
2023/05/04 05:27:45;;;;;;;25.03;15.63;;;4.80;90.70;;;;;;4997614;28;20579;-87
2023/05/04 05:30:11;;;;;;;39.37;17.37;;;4.90;90.80;;;;;;4998909;28;20241;-87
2023/05/04 05:32:37;;;;;;;21.63;12.00;;;5.00;90.80;;;;;;4998449;28;20178;-87
2023/05/04 05:35:04;;;;;;;20.27;13.33;;;5.00;90.70;;;;;;4998209;28;20186;-87
2023/05/04 05:37:31;;;;;;;26.70;15.37;;;5.20;90.70;;;;;;4998193;28;20230;-87
2023/05/04 05:39:56;;;;;;;23.30;15.53;;;5.30;90.60;;;;;;5015736;28;20232;-87
2023/05/04 05:42:22;;;;;;;24.00;16.47;;;5.40;90.50;;;;;;5015785;28;20187;-87
2023/05/04 05:44:47;;;;;;;28.77;15.67;;;5.60;90.40;;;;;;5015737;28;20177;-87
2023/05/04 05:47:13;;;;;;;19.23;11.07;;;5.70;90.10;;;;;;5015373;28;20235;-87
2023/05/04 05:49:40;;;;;;;23.43;13.03;;;5.90;90.00;;;;;;4997851;28;20222;-87
2023/05/04 05:52:05;;;;;;;22.03;11.60;;;6.00;89.50;;;;;;4997658;28;20176;-87
2023/05/04 05:54:32;;;;;;;19.63;12.10;;;6.20;89.20;;;;;;4997678;28;20184;-87
2023/05/04 05:56:57;;;;;;;16.93;11.93;;;6.30;88.70;;;;;;4997734;28;20612;-86
2023/05/04 05:59:23;;;;;;;18.40;11.57;;;6.40;88.40;;;;;;4997449;28;20189;-86
2023/05/04 06:01:48;;;;;;;21.30;12.07;;;6.50;88.00;;;;;;5015449;28;20171;-87
2023/05/04 06:04:14;;;;;;;20.00;12.20;;;6.60;87.50;;;;;;4997942;28;20177;-87
2023/05/04 06:06:40;;;;;;;19.03;11.73;;;6.70;87.40;;;;;;4997628;28;20170;-87
2023/05/04 06:09:05;;;;;;;22.07;11.53;;;6.90;87.00;;;;;;5015626;28;20228;-87
2023/05/04 06:11:31;;;;;;;20.97;11.47;;;7.00;86.50;;;;;;5015039;28;20181;-87
2023/05/04 06:13:57;;;;;;;21.03;10.70;;;7.20;86.20;;;;;;4997666;28;20173;-88
2023/05/04 06:16:22;;;;;;;19.90;11.63;;;7.30;86.20;;;;;;4997112;28;20316;-86
2023/05/04 06:18:48;;;;;;;22.47;12.10;;;7.50;85.90;;;;;;5014858;28;20312;-85
2023/05/04 06:21:13;;;;;;;21.27;13.07;;;7.60;85.00;;;;;;5015157;28;20189;-87
2023/05/04 06:23:39;;;;;;;18.67;12.40;;;7.60;83.50;;;;;;4997047;28;20196;-87
2023/05/04 06:26:06;;;;;;;26.60;14.13;;;7.70;82.90;;;;;;4996881;28;20185;-87
2023/05/04 06:28:32;;;;;;;19.33;11.47;;;7.80;82.50;;;;;;5014538;28;20284;-87
2023/05/04 06:30:58;;;;;;;15.57;12.10;;;7.90;82.20;;;;;;5014486;28;20216;-87
2023/05/04 06:33:23;;;;;;;15.10;11.87;;;8.00;82.20;;;;;;5014950;28;20169;-87
2023/05/04 06:35:49;;;;;;;22.47;12.87;;;8.10;82.00;;;;;;4997695;28;20558;-86
2023/05/04 06:38:15;;;;;;;17.63;12.07;;;8.00;81.70;;;;;;4997038;28;20255;-85
2023/05/04 06:40:40;;;;;;;21.53;12.20;;;8.10;81.70;;;;;;5014872;28;20197;-87
2023/05/04 06:43:06;;;;;;;24.60;12.43;;;8.30;81.80;;;;;;5014840;28;20174;-87
2023/05/04 06:45:35;;;;;;;19.90;12.80;;;8.30;81.00;;;;;;4996807;28;20193;-87
2023/05/04 06:48:04;;;;;;;25.03;12.43;;;8.40;80.80;;;;;;4996576;28;20208;-89
2023/05/04 06:50:31;;;;;;;25.07;22.47;;;8.60;79.90;;;;;;4997500;28;20229;-87
2023/05/04 06:53:07;;;;;;;20.83;18.63;;;8.60;78.90;;;;;;4997393;28;20208;-87
2023/05/04 06:55:33;;;;;;;20.53;18.40;;;8.80;79.30;;;;;;4997945;28;20188;-87
2023/05/04 06:57:58;;;;;;;21.37;19.27;;;8.90;78.40;;;;;;5015438;28;20177;-85
2023/05/04 07:00:24;;;;;;;19.57;17.70;;;9.00;77.50;;;;;;4996979;28;20212;-87
2023/05/04 07:02:52;;;;;;;19.83;17.30;;;9.00;77.20;;;;;;4996873;28;20189;-86
2023/05/04 07:05:18;;;;;;;18.30;12.00;;;9.20;77.10;;;;;;4996802;28;20272;-88
2023/05/04 07:07:43;;;;;;;20.03;10.13;;;9.20;76.60;;;;;;4997906;28;20292;-87
2023/05/04 07:10:09;;;;;;;25.13;18.13;;;9.30;76.10;;;;;;5014626;28;20197;-86
2023/05/04 07:12:34;;;;;;;20.63;17.60;;;9.50;76.00;;;;;;4996580;28;20259;-87
2023/05/04 07:15:00;;;;;;;19.83;17.80;;;9.50;75.70;;;;;;4996558;28;20184;-87
2023/05/04 07:17:26;;;;;;;24.77;18.73;;;9.60;75.50;;;;;;4996380;28;20181;-87
2023/05/04 07:19:52;;;;;;;17.40;10.53;;;9.60;74.40;;;;;;4997403;28;20201;-87
2023/05/04 07:22:19;;;;;;;19.03;11.87;;;9.70;74.20;;;;;;5014409;28;20169;-87
2023/05/04 07:24:45;;;;;;;16.80;11.83;;;9.80;74.70;;;;;;4996913;28;20178;-86
2023/05/04 07:27:11;;;;;;;14.60;10.83;;;9.90;74.00;;;;;;5014464;28;20200;-86
2023/05/04 07:29:36;;;;;;;21.10;12.23;;;10.10;73.70;;;;;;4997211;28;20281;-86
2023/05/04 07:32:02;;;;;;;20.30;11.33;;;10.10;72.70;;;;;;5014305;28;20219;-87
2023/05/04 07:34:27;;;;;;;17.93;11.27;;;10.30;73.50;;;;;;4996723;28;20186;-88
2023/05/04 07:36:53;;;;;;;14.67;11.27;;;10.50;73.10;;;;;;4996518;28;20180;-86
2023/05/04 07:39:18;;;;;;;17.60;11.10;;;10.60;73.20;;;;;;5014249;28;20198;-87
2023/05/04 07:41:44;;;;;;;18.30;12.63;;;10.70;72.80;;;;;;5014107;28;20204;-87
2023/05/04 07:44:10;;;;;;;18.63;12.23;;;10.90;71.60;;;;;;5014172;28;20180;-87
2023/05/04 07:46:37;;;;;;;28.53;14.00;;;11.00;70.50;;;;;;4996290;28;20273;-87
2023/05/04 07:49:03;;;;;;;15.43;11.90;;;11.20;70.90;;;;;;4995911;28;20240;-88
2023/05/04 07:51:28;;;;;;;15.33;12.17;;;11.30;69.50;;;;;;4998813;28;20608;-87
2023/05/04 07:53:54;;;;;;;14.27;12.80;;;11.40;70.60;;;;;;5000168;28;20592;-86
2023/05/04 07:56:20;;;;;;;13.90;12.70;;;11.50;67.80;;;;;;5000235;28;20635;-87
2023/05/04 07:58:46;;;;;;;15.10;13.13;;;11.60;66.40;;;;;;5002246;28;20177;-88
2023/05/04 08:01:11;;;;;;;13.23;11.93;;;11.70;66.80;;;;;;5001795;28;20593;-85
2023/05/04 08:03:37;;;;;;;13.37;11.60;;;11.70;66.60;;;;;;5003407;28;20189;-85
2023/05/04 08:06:02;;;;;;;15.60;13.77;;;11.80;65.80;;;;;;5004419;28;20181;-87
2023/05/04 08:08:28;;;;;;;14.63;13.10;;;11.80;65.90;;;;;;5003769;28;20209;-88
2023/05/04 08:10:54;;;;;;;15.30;11.97;;;11.90;65.40;;;;;;5019217;28;20204;-86
2023/05/04 08:13:20;;;;;;;15.67;12.87;;;12.00;65.30;;;;;;5018902;28;20169;-87
2023/05/04 08:15:45;;;;;;;15.47;12.83;;;12.10;66.20;;;;;;5002170;28;20184;-87
2023/05/04 08:18:11;;;;;;;14.27;12.80;;;12.20;66.00;;;;;;5001687;28;20182;-88
2023/05/04 08:20:36;;;;;;;17.70;13.37;;;12.30;65.90;;;;;;5017131;28;20256;-88
2023/05/04 08:23:02;;;;;;;15.97;13.83;;;12.40;65.10;;;;;;4999236;28;20558;-89
2023/05/04 08:25:28;;;;;;;16.43;13.40;;;12.40;64.70;;;;;;5017192;28;20193;-87
2023/05/04 08:27:53;;;;;;;25.87;20.40;;;12.50;64.30;;;;;;4999994;28;20201;-87
2023/05/04 08:30:19;;;;;;;21.23;19.37;;;12.60;65.30;;;;;;4999719;28;20710;-89
2023/05/04 08:32:45;;;;;;;23.00;20.87;;;12.70;66.00;;;;;;5000045;28;20213;-88
2023/05/04 08:35:10;;;;;;;23.57;21.67;;;12.80;63.40;;;;;;5016458;28;20227;-88
2023/05/04 08:37:36;;;;;;;19.57;14.60;;;12.80;63.80;;;;;;5016383;28;20182;-89
2023/05/04 08:40:02;;;;;;;14.43;12.27;;;12.80;62.70;;;;;;4998848;28;20197;-88
2023/05/04 08:42:31;;;;;;;14.67;13.33;;;12.90;63.50;;;;;;4998692;28;20181;-88
2023/05/04 08:44:58;;;;;;;20.77;18.63;;;13.00;62.60;;;;;;5016120;28;20174;-88
2023/05/04 08:47:30;;;;;;;21.13;18.70;;;12.90;61.40;;;;;;4998447;28;20208;-89
2023/05/04 08:49:56;;;;;;;20.70;18.80;;;12.90;62.40;;;;;;4998372;28;20225;-88
2023/05/04 08:52:25;;;;;;;20.30;18.13;;;13.00;62.30;;;;;;4999003;28;20186;-89
2023/05/04 08:54:54;;;;;;;15.53;13.47;;;13.10;61.90;;;;;;5016287;28;20196;-88
2023/05/04 08:57:21;;;;;;;15.93;14.40;;;13.30;61.40;;;;;;5016300;28;20184;-87
2023/05/04 08:59:50;;;;;;;15.33;13.73;;;13.50;60.40;;;;;;4999002;28;20207;-87
2023/05/04 09:02:21;;;;;;;16.60;14.93;;;13.60;61.30;;;;;;5015468;28;20181;-88
2023/05/04 09:04:51;;;;;;;17.00;15.23;;;13.50;59.80;;;;;;4998684;28;20594;-87
2023/05/04 09:07:17;;;;;;;21.27;15.40;;;13.50;59.20;;;;;;4999053;28;20208;-88
2023/05/04 09:09:43;;;;;;;19.57;13.63;;;13.60;60.50;;;;;;4998564;28;20550;-88
2023/05/04 09:12:09;;;;;;;16.73;14.93;;;13.80;60.00;;;;;;4998335;28;20177;-87
2023/05/04 09:14:35;;;;;;;15.87;14.27;;;13.80;58.10;;;;;;4998579;28;20174;-87
2023/05/04 09:17:02;;;;;;;15.83;14.43;;;13.80;58.80;;;;;;4998413;28;20173;-87
2023/05/04 09:19:32;;;;;;;15.37;13.77;;;13.80;59.10;;;;;;5015870;28;20305;-88
2023/05/04 09:22:12;;;;;;;17.43;15.80;;;13.90;58.80;;;;;;5015888;28;20248;-88
2023/05/04 09:24:38;;;;;;;16.10;14.10;;;14.00;59.50;;;;;;5015948;28;20164;-88
2023/05/04 09:27:17;;;;;;;17.10;13.80;;;14.20;60.60;;;;;;4997947;28;20177;-88
2023/05/04 09:29:43;;;;;;;24.43;14.27;;;14.20;58.40;;;;;;4998204;28;20196;-87
2023/05/04 09:32:13;;;;;;;16.77;14.97;;;14.20;56.80;;;;;;5015536;28;20674;-88
2023/05/04 09:34:52;;;;;;;16.13;13.70;;;14.10;58.90;;;;;;5015296;28;20172;-87
2023/05/04 09:37:21;;;;;;;15.57;14.00;;;14.20;58.60;;;;;;4998190;28;20706;-88
2023/05/04 09:39:58;;;;;;;14.70;13.20;;;14.00;58.20;;;;;;4997679;28;20251;-88
2023/05/04 09:42:25;;;;;;;14.93;13.53;;;14.10;58.50;;;;;;4997820;28;20174;-88
2023/05/04 09:44:58;;;;;;;14.80;13.30;;;14.20;58.60;;;;;;5015518;28;20173;-87
2023/05/04 09:47:35;;;;;;;19.40;14.93;;;14.20;58.90;;;;;;4997338;28;20740;-88
2023/05/04 09:50:18;;;;;;;16.67;14.87;;;14.30;58.50;;;;;;4997153;28;20213;-89
2023/05/04 09:52:45;;;;;;;21.93;16.13;;;14.50;58.50;;;;;;4997829;28;20162;-87
2023/05/04 09:55:12;;;;;;;16.53;14.83;;;14.50;56.70;;;;;;4998598;28;20223;-88
2023/05/04 09:57:40;;;;;;;16.47;14.07;;;14.60;57.60;;;;;;4998456;28;20177;-88
2023/05/04 10:00:08;;;;;;;16.10;14.40;;;14.50;57.50;;;;;;4998172;28;20193;-87
2023/05/04 10:02:34;;;;;;;16.73;15.03;;;14.60;57.60;;;;;;4997916;28;20200;-88
2023/05/04 10:05:00;;;;;;;16.27;14.80;;;14.50;56.20;;;;;;4997851;28;20687;-89
2023/05/04 10:07:30;;;;;;;22.73;20.70;;;14.50;56.00;;;;;;5015536;28;20675;-88
2023/05/04 10:09:57;;;;;;;21.77;19.53;;;14.70;57.90;;;;;;5015485;28;20189;-89
2023/05/04 10:12:23;;;;;;;25.30;20.57;;;14.80;57.10;;;;;;4997932;28;20177;-88
2023/05/04 10:14:48;;;;;;;21.90;20.05;;;14.80;54.70;;;;;;4997043;28;20176;-88
2023/05/04 10:17:26;;;;;;;16.38;14.10;;;14.90;54.80;;;;;;4997212;28;20181;-88
2023/05/04 10:20:21;;;;;;;16.23;14.73;;;15.00;53.70;;;;;;4997103;28;20209;-88
2023/05/04 10:22:58;;;;;;;21.33;19.42;;;15.10;55.30;;;;;;4993216;28;20308;-89
2023/05/04 10:26:07;;;;;;;21.75;20.00;;;15.30;54.50;;;;;;4997600;28;20181;-89
2023/05/04 10:28:38;;;;;;;21.05;19.42;;;15.40;54.10;;;;;;4996604;28;20259;-88
2023/05/04 10:31:05;;;;;;;21.17;19.13;;;15.50;53.30;;;;;;4996536;28;20204;-89
2023/05/04 10:33:38;;;;;;;16.83;14.38;;;15.50;52.70;;;;;;5014541;28;20180;-89
2023/05/04 10:36:04;;;;;;;16.27;14.70;;;15.70;52.40;;;;;;4996606;28;20173;-88
2023/05/04 10:38:34;;;;;;;19.88;13.70;;;16.00;55.10;;;;;;5014009;28;20231;-89
2023/05/04 10:41:11;;;;;;;15.65;13.73;;;16.10;52.80;;;;;;4996571;28;20236;-89
2023/05/04 10:43:36;;;;;;;16.10;13.98;;;16.30;55.00;;;;;;4997599;28;20197;-91
2023/05/04 10:46:02;;;;;;;14.38;13.18;;;16.20;49.50;;;;;;4996404;28;20196;-90
2023/05/04 10:48:35;;;;;;;14.32;13.02;;;16.20;52.60;;;;;;5014147;28;20243;-88
2023/05/04 10:51:00;;;;;;;14.68;13.32;;;16.30;50.50;;;;;;5013647;28;20737;-87
2023/05/04 10:53:32;;;;;;;16.33;14.07;;;16.20;49.70;;;;;;5014188;28;20178;-88
2023/05/04 10:55:58;;;;;;;14.73;13.50;;;16.20;53.00;;;;;;4997940;28;20173;-88
2023/05/04 10:58:28;;;;;;;15.07;12.82;;;16.20;51.90;;;;;;4998773;28;20189;-87
2023/05/04 11:00:53;;;;;;;16.05;13.70;;;16.10;51.70;;;;;;5014475;28;20217;-87
2023/05/04 11:03:20;;;;;;;14.68;13.18;;;16.10;50.90;;;;;;4997756;28;20263;-87
2023/05/04 11:05:54;;;;;;;14.50;13.00;;;16.20;49.10;;;;;;4996625;28;20181;-87
2023/05/04 11:08:24;;;;;;;14.45;13.25;;;16.20;50.70;;;;;;5014246;28;20578;-88
2023/05/04 11:11:01;;;;;;;14.38;13.20;;;16.30;52.50;;;;;;4996531;28;20288;-88
2023/05/04 11:13:29;;;;;;;14.80;13.52;;;16.30;49.70;;;;;;5014288;28;20161;-86
2023/05/04 11:15:55;;;;;;;15.00;13.70;;;16.30;48.00;;;;;;4996763;28;20599;-87
2023/05/04 11:18:36;;;;;;;15.18;13.85;;;16.50;50.60;;;;;;5014006;28;20177;-87
2023/05/04 11:21:02;;;;;;;14.95;13.43;;;16.30;48.30;;;;;;4996950;28;20633;-86
2023/05/04 11:23:28;;;;;;;14.10;12.85;;;16.30;48.90;;;;;;4996446;28;20204;-86
2023/05/04 11:25:54;;;;;;;15.55;13.55;;;16.50;46.90;;;;;;5015171;28;20260;-86
2023/05/04 11:28:30;;;;;;;29.75;15.40;;;16.50;47.70;;;;;;5018007;28;20280;-86
2023/05/04 11:30:56;;;;;;;16.05;14.80;;;16.80;48.40;;;;;;5000954;28;20683;-86
2023/05/04 11:33:21;;;;;;;16.77;15.07;;;16.70;47.60;;;;;;5017793;28;20225;-87
2023/05/04 11:35:47;;;;;;;21.20;14.93;;;16.70;49.20;;;;;;5017825;28;20181;-87
2023/05/04 11:38:18;;;;;;;18.60;16.17;;;16.80;49.40;;;;;;5017654;28;20177;-86
2023/05/04 11:40:47;;;;;;;24.65;18.25;;;17.00;49.90;;;;;;5000124;28;20205;-87
2023/05/04 11:43:13;;;;;;;29.48;18.17;;;17.30;48.70;;;;;;5018030;28;20181;-87
2023/05/04 11:45:39;;;;;;;15.50;14.10;;;17.40;44.70;;;;;;5000255;28;20674;-87
2023/05/04 11:48:07;;;;;;;15.68;14.18;;;17.30;46.20;;;;;;4999809;28;20205;-87
2023/05/04 11:50:33;;;;;;;16.67;14.93;;;17.10;46.50;;;;;;5041020;23;20687;-85
2023/05/04 11:53:06;;;;;;;16.13;14.60;;;16.90;47.80;;;;;;5017429;28;20174;-85
2023/05/04 11:55:31;;;;;;;22.75;20.48;;;17.00;48.90;;;;;;5017530;28;20643;-85
2023/05/04 11:57:58;;;;;;;22.45;20.23;;;17.30;49.20;;;;;;5000062;28;20276;-85
2023/05/04 12:00:37;;;;;;;26.00;22.25;;;17.50;49.50;;;;;;5017391;28;20189;-85
2023/05/04 12:03:04;;;;;;;30.75;17.48;;;17.60;46.20;;;;;;4999508;28;20177;-85
2023/05/04 12:05:30;;;;;;;16.42;14.88;;;17.70;49.70;;;;;;5017367;28;20197;-85
2023/05/04 12:07:56;;;;;;;24.23;21.67;;;17.80;42.80;;;;;;5017218;28;20221;-85
2023/05/04 12:10:33;;;;;;;22.08;20.08;;;17.70;44.20;;;;;;4999658;28;20224;-85
2023/05/04 12:13:02;;;;;;;22.33;20.23;;;17.60;48.50;;;;;;4999411;28;20188;-85
2023/05/04 12:15:33;;;;;;;24.23;22.25;;;17.50;47.50;;;;;;4999634;28;20169;-84
2023/05/04 12:17:59;;;;;;;17.55;15.88;;;17.20;46.60;;;;;;5016547;28;20174;-85
2023/05/04 12:20:29;;;;;;;18.13;16.35;;;17.20;46.40;;;;;;4998769;28;20201;-85
2023/05/04 12:23:04;;;;;;;19.38;15.68;;;17.10;45.60;;;;;;5016648;28;20237;-86
2023/05/04 12:25:29;;;;;;;17.25;15.70;;;17.20;47.30;;;;;;5016667;28;20172;-86
2023/05/04 12:27:56;;;;;;;18.08;15.35;;;16.80;46.30;;;;;;4998733;28;20209;-85
2023/05/04 12:30:21;;;;;;;17.25;15.57;;;16.70;46.00;;;;;;4998746;28;20244;-85
2023/05/04 12:32:47;;;;;;;17.02;15.32;;;16.60;47.50;;;;;;5016615;28;20173;-85